createdAt,value
2022-09-14T00:00:42.640Z,3.38
2022-09-14T00:03:06.372Z,3.40
2022-09-14T00:05:29.990Z,3.15
2022-09-14T00:07:55.081Z,3.50
2022-09-14T00:10:18.810Z,3.42
2022-09-14T00:12:42.378Z,3.50
2022-09-14T00:15:07.570Z,2.90
2022-09-14T00:17:31.110Z,3.00
2022-09-14T00:19:54.967Z,3.10
2022-09-14T00:22:18.770Z,3.20
2022-09-14T00:24:43.683Z,3.60
2022-09-14T00:27:07.374Z,3.20
2022-09-14T00:29:31.667Z,2.97
2022-09-14T00:31:55.399Z,3.00
2022-09-14T00:34:19.526Z,3.17
2022-09-14T00:36:46.395Z,3.78
2022-09-14T00:39:11.216Z,3.55
2022-09-14T00:41:40.368Z,2.97
2022-09-14T00:44:07.555Z,2.90
2022-09-14T00:46:33.779Z,3.00
2022-09-14T00:49:00.307Z,2.78
2022-09-14T00:51:26.029Z,3.80
2022-09-14T00:53:50.480Z,2.92
2022-09-14T00:56:14.371Z,2.78
2022-09-14T00:58:40.328Z,2.88
2022-09-14T01:01:04.016Z,3.08
2022-09-14T01:03:27.544Z,3.22
2022-09-14T01:06:03.399Z,2.92
2022-09-14T01:08:58.216Z,3.30
2022-09-14T01:11:41.367Z,3.28
2022-09-14T01:14:15.758Z,2.80
2022-09-14T01:16:49.740Z,3.30
2022-09-14T01:19:25.159Z,3.13
2022-09-14T01:21:49.795Z,2.97
2022-09-14T01:24:23.246Z,2.83
2022-09-14T01:27:26.915Z,2.83
2022-09-14T01:30:06.388Z,2.97
2022-09-14T01:32:35.507Z,3.22
2022-09-14T01:35:06.332Z,2.85
2022-09-14T01:37:35.442Z,3.00
2022-09-14T01:40:04.856Z,2.95
2022-09-14T01:42:31.596Z,3.08
2022-09-14T01:45:00.399Z,3.00
2022-09-14T01:47:29.603Z,3.40
2022-09-14T01:49:58.849Z,2.83
2022-09-14T01:52:27.072Z,3.10
2022-09-14T01:54:54.223Z,3.33
2022-09-14T01:57:22.812Z,3.65
2022-09-14T01:59:50.503Z,3.50
2022-09-14T02:02:19.542Z,3.33
2022-09-14T02:04:49.788Z,3.60
2022-09-14T02:07:13.627Z,3.40
2022-09-14T02:09:37.379Z,3.45
2022-09-14T02:12:01.598Z,3.03
2022-09-14T02:14:25.159Z,3.10
2022-09-14T02:16:50.148Z,3.63
2022-09-14T02:19:14.784Z,3.20
2022-09-14T02:21:38.964Z,3.55
2022-09-14T02:24:03.501Z,3.30
2022-09-14T02:26:28.179Z,3.78
2022-09-14T02:28:55.914Z,3.20
2022-09-14T02:31:30.328Z,3.22
2022-09-14T02:34:06.836Z,3.33
2022-09-14T02:36:48.075Z,3.50
2022-09-14T02:39:25.719Z,3.35
2022-09-14T02:41:53.448Z,3.50
2022-09-14T02:44:27.588Z,3.97
2022-09-14T02:47:00.441Z,3.60
2022-09-14T02:49:36.075Z,3.30
2022-09-14T02:52:07.779Z,4.45
2022-09-14T02:54:36.797Z,3.72
2022-09-14T02:57:02.460Z,3.40
2022-09-14T02:59:26.281Z,3.60
2022-09-14T03:01:50.173Z,3.78
2022-09-14T03:04:13.793Z,3.60
2022-09-14T03:06:38.742Z,3.47
2022-09-14T03:09:02.321Z,2.88
2022-09-14T03:11:25.911Z,3.70
2022-09-14T03:13:49.760Z,3.72
2022-09-14T03:16:15.829Z,3.17
2022-09-14T03:18:40.281Z,3.47
2022-09-14T03:21:05.986Z,3.50
2022-09-14T03:23:30.932Z,3.13
2022-09-14T03:25:54.448Z,3.60
2022-09-14T03:28:18.003Z,3.50
2022-09-14T03:30:41.814Z,4.50
2022-09-14T03:33:06.268Z,3.35
2022-09-14T03:35:31.457Z,3.47
2022-09-14T03:37:55.044Z,3.47
2022-09-14T03:40:22.079Z,3.60
2022-09-14T03:42:49.205Z,3.55
2022-09-14T03:45:13.958Z,3.47
2022-09-14T03:47:37.524Z,3.45
2022-09-14T03:50:01.051Z,3.97
2022-09-14T03:52:24.615Z,3.88
2022-09-14T03:54:48.137Z,4.28
2022-09-14T03:57:13.102Z,3.10
2022-09-14T03:59:39.444Z,4.47
2022-09-14T04:02:06.758Z,3.78
2022-09-14T04:04:30.755Z,3.60
2022-09-14T04:06:54.931Z,3.45
2022-09-14T04:09:19.301Z,4.20
2022-09-14T04:11:42.915Z,4.32
2022-09-14T04:14:08.501Z,5.00
2022-09-14T04:16:32.803Z,4.43
2022-09-14T04:18:56.532Z,4.65
2022-09-14T04:21:23.123Z,4.28
2022-09-14T04:24:10.601Z,4.38
2022-09-14T04:26:32.648Z,4.28
2022-09-14T04:28:57.407Z,4.43
2022-09-14T04:31:22.440Z,4.45
2022-09-14T04:33:46.446Z,4.25
2022-09-14T04:36:12.458Z,4.00
2022-09-14T04:38:37.396Z,4.57
2022-09-14T04:41:01.709Z,5.00
2022-09-14T04:43:25.796Z,4.22
2022-09-14T04:45:49.383Z,4.93
2022-09-14T04:48:14.372Z,5.10
2022-09-14T04:50:38.178Z,4.88
2022-09-14T04:53:01.699Z,4.25
2022-09-14T04:55:25.367Z,4.10
2022-09-14T04:57:49.424Z,4.20
2022-09-14T05:00:14.543Z,4.53
2022-09-14T05:02:42.397Z,4.78
2022-09-14T05:05:08.275Z,4.10
2022-09-14T05:07:31.824Z,4.28
2022-09-14T05:09:55.403Z,4.45
2022-09-14T05:12:18.903Z,4.50
2022-09-14T05:14:42.511Z,4.22
2022-09-14T05:17:06.160Z,4.60
2022-09-14T05:19:29.754Z,4.75
2022-09-14T05:21:54.655Z,5.00
2022-09-14T05:24:20.451Z,4.78
2022-09-14T05:26:45.345Z,4.68
2022-09-14T05:29:09.090Z,4.60
2022-09-14T05:31:33.404Z,4.57
2022-09-14T05:33:57.222Z,4.82
2022-09-14T05:36:21.382Z,4.72
2022-09-14T05:38:46.666Z,4.55
2022-09-14T05:41:13.416Z,4.65
2022-09-14T05:43:37.022Z,4.30
2022-09-14T05:46:04.258Z,4.20
2022-09-14T05:48:27.835Z,4.00
2022-09-14T05:50:59.420Z,4.47
2022-09-14T05:53:22.999Z,4.40
2022-09-14T05:55:47.918Z,4.10
2022-09-14T05:58:13.412Z,5.38
2022-09-14T06:00:36.991Z,3.80
2022-09-14T06:03:00.578Z,4.25
2022-09-14T06:05:25.413Z,3.70
2022-09-14T06:07:53.144Z,3.55
2022-09-14T06:10:16.848Z,3.95
2022-09-14T06:12:41.806Z,4.05
2022-09-14T06:15:06.607Z,3.88
2022-09-14T06:17:31.575Z,3.97
2022-09-14T06:19:55.061Z,3.60
2022-09-14T06:22:18.687Z,3.20
2022-09-14T06:24:42.639Z,3.65
2022-09-14T06:27:08.974Z,3.80
2022-09-14T06:29:33.928Z,3.92
2022-09-14T06:31:57.530Z,3.20
2022-09-14T06:34:21.087Z,3.58
2022-09-14T06:36:44.917Z,3.80
2022-09-14T06:39:08.426Z,3.22
2022-09-14T06:41:33.062Z,2.90
2022-09-14T06:43:59.427Z,3.25
2022-09-14T06:46:27.069Z,3.08
2022-09-14T06:48:54.226Z,3.33
2022-09-14T06:51:20.775Z,3.40
2022-09-14T06:53:44.827Z,3.42
2022-09-14T06:56:08.475Z,2.00
2022-09-14T06:58:31.979Z,2.20
2022-09-14T07:00:55.607Z,2.40
2022-09-14T07:03:20.559Z,2.25
2022-09-14T07:05:44.134Z,2.20
2022-09-14T07:08:11.896Z,2.15
2022-09-14T07:10:35.969Z,2.75
2022-09-14T07:13:00.667Z,2.20
2022-09-14T07:15:24.280Z,2.47
2022-09-14T07:17:48.211Z,2.33
2022-09-14T07:20:15.410Z,2.80
2022-09-14T07:22:38.944Z,1.92
2022-09-14T07:25:02.548Z,2.30
2022-09-14T07:27:26.098Z,2.30
2022-09-14T07:29:49.772Z,2.30
2022-09-14T07:32:13.276Z,2.55
2022-09-14T07:34:36.836Z,2.10
2022-09-14T07:37:01.818Z,2.08
2022-09-14T07:39:25.384Z,2.20
2022-09-14T07:41:49.090Z,2.30
2022-09-14T07:44:17.012Z,2.42
2022-09-14T07:46:43.229Z,2.30
2022-09-14T07:49:08.218Z,1.90
2022-09-14T07:51:33.272Z,2.35
2022-09-14T07:54:00.037Z,2.03
2022-09-14T07:56:25.736Z,1.58
2022-09-14T07:58:54.554Z,1.70
2022-09-14T08:01:19.268Z,1.73
2022-09-14T08:03:44.988Z,2.20
2022-09-14T08:06:11.030Z,1.90
2022-09-14T08:08:41.829Z,2.00
2022-09-14T08:11:11.164Z,2.10
2022-09-14T08:13:35.743Z,2.15
2022-09-14T08:16:00.271Z,1.70
2022-09-14T08:18:23.746Z,1.85
2022-09-14T08:20:47.224Z,1.88
2022-09-14T08:23:11.180Z,2.40
2022-09-14T08:25:34.655Z,2.17
2022-09-14T08:27:59.632Z,2.00
2022-09-14T08:30:23.110Z,2.20
2022-09-14T08:32:47.399Z,2.10
2022-09-14T08:35:11.302Z,1.80
2022-09-14T08:37:34.787Z,1.77
2022-09-14T08:39:58.278Z,2.05
2022-09-14T08:42:25.111Z,2.13
2022-09-14T08:44:56.530Z,2.08
2022-09-14T08:47:28.110Z,2.15
2022-09-14T08:49:58.803Z,2.10
2022-09-14T08:52:29.282Z,2.25
2022-09-14T08:54:57.688Z,1.77
2022-09-14T08:57:29.571Z,1.98
2022-09-14T09:00:06.947Z,2.10
2022-09-14T09:03:01.603Z,1.90
2022-09-14T09:05:37.677Z,1.60
2022-09-14T09:08:09.583Z,1.63
2022-09-14T09:10:35.267Z,2.05
2022-09-14T09:13:01.882Z,2.30
2022-09-14T09:15:32.143Z,1.70
2022-09-14T09:18:00.043Z,1.90
2022-09-14T09:20:28.684Z,2.03
2022-09-14T09:22:56.419Z,2.10
2022-09-14T09:25:24.190Z,1.77
2022-09-14T09:27:48.763Z,2.03
2022-09-14T09:30:15.877Z,2.00
2022-09-14T09:32:42.251Z,1.67
2022-09-14T09:35:33.870Z,2.10
2022-09-14T09:38:17.176Z,1.73
2022-09-14T09:40:45.532Z,2.20
2022-09-14T09:43:12.471Z,1.73
2022-09-14T09:45:51.322Z,1.90
2022-09-14T09:48:17.668Z,2.80
2022-09-14T09:50:50.526Z,2.13
2022-09-14T09:53:17.939Z,1.70
2022-09-14T09:55:41.803Z,1.55
2022-09-14T09:58:28.273Z,1.77
2022-09-14T10:01:03.611Z,2.00
2022-09-14T10:03:38.318Z,1.92
2022-09-14T10:06:09.969Z,1.98
2022-09-14T10:08:35.075Z,1.80
2022-09-14T10:10:58.627Z,1.38
2022-09-14T10:13:29.706Z,2.00
2022-09-14T10:15:54.209Z,1.70
2022-09-14T10:18:20.241Z,2.20
2022-09-14T10:21:06.640Z,1.95
2022-09-14T10:23:36.237Z,1.92
2022-09-14T10:26:28.498Z,1.67
2022-09-14T10:28:53.418Z,1.55
2022-09-14T10:31:26.624Z,1.88
2022-09-14T10:33:53.738Z,1.80
2022-09-14T10:36:25.645Z,1.70
2022-09-14T10:38:55.232Z,1.60
2022-09-14T10:41:29.173Z,1.98
2022-09-14T10:44:19.424Z,1.60
2022-09-14T10:46:51.350Z,1.70
2022-09-14T10:49:27.961Z,1.60
2022-09-14T10:52:06.858Z,1.73
2022-09-14T10:54:54.733Z,2.03
2022-09-14T10:57:35.363Z,1.55
2022-09-14T11:00:07.072Z,2.10
2022-09-14T11:03:09.163Z,1.90
2022-09-14T11:05:37.887Z,1.40
2022-09-14T11:08:13.178Z,1.60
2022-09-14T11:10:48.428Z,1.52
2022-09-14T11:13:40.323Z,1.85
2022-09-14T11:16:23.534Z,1.90
2022-09-14T11:19:09.834Z,1.60
2022-09-14T11:21:50.439Z,1.52
2022-09-14T11:24:25.515Z,1.48
2022-09-14T11:27:00.619Z,1.45
2022-09-14T11:29:28.789Z,1.63
2022-09-14T11:32:19.179Z,1.88
2022-09-14T11:34:45.201Z,1.45
2022-09-14T11:37:14.840Z,1.80
2022-09-14T11:39:43.982Z,1.67
2022-09-14T11:42:13.374Z,1.27
2022-09-14T11:44:39.572Z,1.77
2022-09-14T11:47:09.227Z,1.50
2022-09-14T11:49:56.339Z,1.83
2022-09-14T11:52:22.600Z,1.70
2022-09-14T11:54:48.332Z,2.00
2022-09-14T11:57:18.841Z,1.73
2022-09-14T11:59:52.907Z,1.75
2022-09-14T12:02:59.822Z,2.00
2022-09-14T12:05:38.031Z,1.70
2022-09-14T12:08:05.796Z,1.75
2022-09-14T12:10:31.565Z,1.85
2022-09-14T12:12:56.654Z,1.58
2022-09-14T12:15:34.509Z,1.50
2022-09-14T12:18:22.594Z,1.58
2022-09-14T12:20:52.783Z,1.50
2022-09-14T12:23:30.587Z,1.67
2022-09-14T12:26:29.560Z,1.60
2022-09-14T12:28:56.939Z,2.08
2022-09-14T12:31:41.113Z,1.90
2022-09-14T12:34:20.696Z,1.70
2022-09-14T12:37:28.365Z,2.13
2022-09-14T12:40:36.328Z,1.73
2022-09-14T12:43:52.686Z,1.83
2022-09-14T12:46:40.937Z,1.60
2022-09-14T12:49:30.685Z,2.00
2022-09-14T12:51:54.955Z,1.35
2022-09-14T12:54:42.978Z,2.00
2022-09-14T12:57:26.940Z,2.08
2022-09-14T12:59:58.772Z,2.60
2022-09-14T13:02:54.461Z,2.50
2022-09-14T13:05:23.706Z,1.65
2022-09-14T13:07:48.110Z,1.50
2022-09-14T13:10:22.389Z,1.65
2022-09-14T13:12:47.052Z,1.70
2022-09-14T13:15:20.523Z,1.98
2022-09-14T13:18:01.265Z,2.30
2022-09-14T13:20:25.025Z,1.50
2022-09-14T13:22:48.545Z,1.77
2022-09-14T13:25:34.455Z,1.77
2022-09-14T13:27:58.960Z,1.75
2022-09-14T13:30:26.340Z,2.03
2022-09-14T13:32:53.580Z,1.98
2022-09-14T13:35:21.203Z,1.90
2022-09-14T13:37:48.195Z,1.50
2022-09-14T13:40:13.290Z,1.58
2022-09-14T13:42:37.114Z,2.03
2022-09-14T13:45:00.796Z,1.50
2022-09-14T13:47:27.175Z,1.58
2022-09-14T13:49:53.504Z,1.70
2022-09-14T13:52:57.008Z,1.42
2022-09-14T13:55:22.990Z,1.60
2022-09-14T13:58:22.720Z,1.55
2022-09-14T14:01:00.337Z,1.60
2022-09-14T14:03:36.606Z,1.55
2022-09-14T14:06:02.135Z,1.80
2022-09-14T14:08:39.240Z,1.80
2022-09-14T14:11:07.085Z,2.20
2022-09-14T14:13:34.120Z,1.55
2022-09-14T14:16:18.846Z,1.58
2022-09-14T14:18:52.172Z,1.60
2022-09-14T14:21:31.015Z,1.80
2022-09-14T14:24:20.725Z,1.48
2022-09-14T14:26:52.003Z,1.70
2022-09-14T14:29:17.935Z,1.63
2022-09-14T14:31:42.656Z,1.58
2022-09-14T14:34:22.061Z,1.90
2022-09-14T14:36:48.222Z,2.40
2022-09-14T14:39:12.906Z,2.30
2022-09-14T14:41:38.120Z,1.80
2022-09-14T14:44:03.632Z,1.80
2022-09-14T14:46:31.792Z,1.90
2022-09-14T14:48:56.152Z,1.70
2022-09-14T14:51:22.437Z,1.80
2022-09-14T14:53:47.039Z,1.70
2022-09-14T14:56:14.195Z,1.70
2022-09-14T14:58:46.068Z,1.98
2022-09-14T15:01:11.008Z,1.30
2022-09-14T15:03:35.348Z,1.73
2022-09-14T15:05:58.954Z,1.80
2022-09-14T15:08:23.859Z,1.88
2022-09-14T15:10:49.061Z,1.90
2022-09-14T15:13:13.449Z,1.65
2022-09-14T15:15:37.102Z,1.80
2022-09-14T15:18:00.840Z,1.60
2022-09-14T15:20:24.550Z,2.13
2022-09-14T15:22:48.895Z,2.00
2022-09-14T15:25:15.591Z,2.05
2022-09-14T15:27:39.495Z,1.55
2022-09-14T15:30:03.464Z,1.50
2022-09-14T15:32:27.258Z,1.77
2022-09-14T15:34:53.003Z,1.85
2022-09-14T15:37:17.013Z,1.60
2022-09-14T15:39:40.742Z,1.80
2022-09-14T15:42:06.320Z,1.63
2022-09-14T15:44:30.903Z,1.92
2022-09-14T15:46:54.951Z,1.83
2022-09-14T15:49:21.222Z,1.80
2022-09-14T15:51:46.468Z,1.73
2022-09-14T15:54:10.238Z,1.80
2022-09-14T15:56:33.731Z,2.03
2022-09-14T15:59:01.243Z,1.90
2022-09-14T16:01:24.800Z,1.83
2022-09-14T16:03:48.454Z,1.65
2022-09-14T16:06:13.772Z,1.85
2022-09-14T16:08:37.890Z,2.03
2022-09-14T16:11:02.706Z,1.88
2022-09-14T16:13:26.401Z,2.20
2022-09-14T16:15:53.581Z,2.15
2022-09-14T16:18:20.308Z,2.70
2022-09-14T16:20:43.815Z,2.17
2022-09-14T16:23:07.641Z,2.17
2022-09-14T16:25:31.214Z,2.97
2022-09-14T16:27:54.786Z,3.20
2022-09-14T16:30:18.355Z,2.22
2022-09-14T16:32:44.747Z,2.08
2022-09-14T16:35:10.495Z,1.98
2022-09-14T16:37:34.104Z,2.65
2022-09-14T16:39:57.772Z,2.10
2022-09-14T16:42:21.404Z,2.80
2022-09-14T16:44:45.044Z,2.47
2022-09-14T16:47:08.822Z,2.60
2022-09-14T16:49:33.749Z,2.47
2022-09-14T16:52:00.609Z,2.65
2022-09-14T16:54:26.233Z,2.58
2022-09-14T16:56:50.679Z,2.70
2022-09-14T16:59:15.776Z,2.63
2022-09-14T17:01:41.822Z,2.42
2022-09-14T17:04:08.529Z,2.25
2022-09-14T17:06:34.826Z,2.53
2022-09-14T17:09:01.456Z,2.40
2022-09-14T17:11:25.645Z,2.42
2022-09-14T17:13:49.231Z,3.00
2022-09-14T17:16:15.811Z,3.33
2022-09-14T17:18:42.146Z,4.82
2022-09-14T17:21:08.614Z,3.83
2022-09-14T17:23:34.315Z,4.18
2022-09-14T17:25:58.316Z,3.65
2022-09-14T17:28:25.319Z,3.90
2022-09-14T17:30:51.848Z,3.67
2022-09-14T17:33:15.376Z,4.13
2022-09-14T17:35:39.066Z,3.80
2022-09-14T17:38:02.857Z,3.67
2022-09-14T17:40:29.318Z,3.42
2022-09-14T17:42:53.219Z,3.40
2022-09-14T17:45:17.014Z,3.65
2022-09-14T17:47:40.540Z,4.22
2022-09-14T17:50:04.271Z,3.78
2022-09-14T17:52:27.847Z,3.85
2022-09-14T17:54:51.389Z,3.47
2022-09-14T17:57:16.483Z,3.90
2022-09-14T17:59:40.070Z,3.30
2022-09-14T18:02:03.589Z,3.90
2022-09-14T18:04:28.143Z,3.30
2022-09-14T18:06:51.855Z,3.70
2022-09-14T18:09:18.179Z,3.50
2022-09-14T18:11:42.481Z,3.50
2022-09-14T18:14:09.818Z,3.17
2022-09-14T18:16:33.993Z,3.85
2022-09-14T18:18:58.421Z,3.80
2022-09-14T18:21:24.102Z,3.88
2022-09-14T18:23:51.372Z,3.75
2022-09-14T18:26:14.933Z,3.88
2022-09-14T18:28:39.262Z,4.10
2022-09-14T18:31:07.120Z,3.85
2022-09-14T18:33:31.019Z,4.10
2022-09-14T18:35:55.196Z,4.10
2022-09-14T18:38:18.750Z,4.25
2022-09-14T18:40:42.274Z,4.80
2022-09-14T18:43:06.227Z,5.28
2022-09-14T18:45:30.071Z,5.68
2022-09-14T18:47:55.116Z,5.18
2022-09-14T18:50:19.186Z,5.15
2022-09-14T18:52:42.781Z,4.93
2022-09-14T18:55:07.767Z,4.60
2022-09-14T18:57:31.425Z,5.03
2022-09-14T18:59:55.079Z,4.35
2022-09-14T19:02:18.839Z,4.47
2022-09-14T19:04:43.951Z,4.60
2022-09-14T19:07:07.839Z,4.75
2022-09-14T19:09:31.793Z,4.47
2022-09-14T19:11:55.515Z,4.60
2022-09-14T19:14:20.679Z,4.28
2022-09-14T19:16:44.511Z,4.30
2022-09-14T19:19:09.314Z,4.10
2022-09-14T19:21:34.581Z,4.25
2022-09-14T19:24:00.553Z,3.88
2022-09-14T19:26:24.346Z,3.95
2022-09-14T19:28:48.018Z,3.72
2022-09-14T19:31:13.455Z,4.00
2022-09-14T19:33:40.015Z,4.03
2022-09-14T19:36:07.437Z,3.97
2022-09-14T19:38:32.415Z,4.07
2022-09-14T19:40:56.017Z,3.50
2022-09-14T19:43:19.624Z,4.00
2022-09-14T19:45:43.304Z,3.90
2022-09-14T19:48:06.869Z,3.65
2022-09-14T19:50:30.453Z,3.50
2022-09-14T19:52:54.991Z,4.53
2022-09-14T19:55:20.074Z,4.05
2022-09-14T19:57:43.618Z,4.18
2022-09-14T20:00:09.617Z,3.60
2022-09-14T20:02:33.398Z,4.05
2022-09-14T20:04:57.035Z,3.75
2022-09-14T20:07:20.660Z,4.65
2022-09-14T20:09:44.291Z,5.03
2022-09-14T20:12:09.743Z,4.80
2022-09-14T20:14:33.340Z,4.95
2022-09-14T20:16:59.171Z,5.70
2022-09-14T20:19:25.122Z,6.05
2022-09-14T20:21:51.194Z,6.05
2022-09-14T20:24:18.355Z,6.43
2022-09-14T20:26:42.718Z,6.30
2022-09-14T20:29:07.673Z,6.65
2022-09-14T20:31:32.319Z,6.13
2022-09-14T20:33:56.077Z,6.40
2022-09-14T20:36:21.997Z,8.55
2022-09-14T20:38:50.295Z,8.40
2022-09-14T20:41:17.966Z,8.07
2022-09-14T20:43:42.803Z,7.00
2022-09-14T20:46:10.003Z,7.45
2022-09-14T20:48:34.719Z,7.35
2022-09-14T20:50:59.178Z,6.65
2022-09-14T20:53:22.907Z,7.22
2022-09-14T20:55:46.435Z,5.90
2022-09-14T20:58:10.003Z,5.97
2022-09-14T21:00:33.583Z,5.47
2022-09-14T21:02:58.660Z,5.78
2022-09-14T21:05:22.203Z,5.88
2022-09-14T21:07:56.045Z,6.20
2022-09-14T21:10:20.078Z,5.97
2022-09-14T21:12:43.606Z,7.07
2022-09-14T21:15:08.063Z,6.80
2022-09-14T21:17:31.594Z,7.63
2022-09-14T21:19:56.602Z,7.68
2022-09-14T21:22:20.386Z,6.93
2022-09-14T21:24:43.951Z,7.47
2022-09-14T21:27:07.780Z,6.90
2022-09-14T21:29:31.803Z,7.18
2022-09-14T21:31:55.511Z,8.90
2022-09-14T21:34:19.511Z,7.60
2022-09-14T21:36:46.605Z,7.32
2022-09-14T21:39:12.631Z,7.47
2022-09-14T21:41:37.636Z,6.57
2022-09-14T21:44:01.598Z,6.50
2022-09-14T21:46:25.572Z,6.32
2022-09-14T21:48:49.387Z,7.18
2022-09-14T21:51:19.252Z,6.72
2022-09-14T21:53:46.879Z,6.43
2022-09-14T21:56:10.423Z,7.13
2022-09-14T21:58:34.554Z,8.82
2022-09-14T22:01:00.052Z,8.82
2022-09-14T22:03:24.110Z,7.88
2022-09-14T22:05:57.218Z,6.70
2022-09-14T22:08:20.795Z,7.53
2022-09-14T22:10:45.700Z,6.13
2022-09-14T22:13:09.296Z,6.07
2022-09-14T22:15:35.198Z,5.93
2022-09-14T22:18:02.114Z,6.65
2022-09-14T22:20:26.008Z,6.20
2022-09-14T22:22:49.627Z,5.57
2022-09-14T22:25:13.129Z,5.53
2022-09-14T22:27:41.247Z,5.47
2022-09-14T22:30:05.323Z,4.82
2022-09-14T22:32:28.930Z,5.38
2022-09-14T22:34:52.479Z,5.28
2022-09-14T22:37:16.026Z,4.80
2022-09-14T22:39:39.553Z,5.07
2022-09-14T22:42:03.871Z,4.80
2022-09-14T22:44:28.855Z,4.88
2022-09-14T22:46:52.435Z,4.88
2022-09-14T22:49:16.519Z,4.50
2022-09-14T22:51:40.391Z,4.90
2022-09-14T22:54:03.934Z,4.95
2022-09-14T22:56:31.252Z,4.57
2022-09-14T22:58:55.057Z,4.88
2022-09-14T23:01:24.389Z,4.63
2022-09-14T23:03:48.155Z,4.30
2022-09-14T23:06:12.392Z,4.45
2022-09-14T23:08:37.012Z,4.75
2022-09-14T23:11:05.239Z,4.10
2022-09-14T23:13:28.726Z,5.30
2022-09-14T23:15:52.327Z,4.40
2022-09-14T23:18:17.982Z,5.20
2022-09-14T23:20:43.828Z,5.05
2022-09-14T23:23:08.685Z,5.28
2022-09-14T23:25:34.231Z,5.45
2022-09-14T23:27:57.774Z,4.90
2022-09-14T23:30:21.397Z,5.32
2022-09-14T23:32:44.936Z,5.63
2022-09-14T23:35:11.658Z,4.93
2022-09-14T23:37:35.436Z,5.13
2022-09-14T23:39:59.043Z,5.20
2022-09-14T23:42:22.593Z,5.03
2022-09-14T23:44:46.127Z,5.55
2022-09-14T23:47:09.654Z,5.45
2022-09-14T23:49:33.269Z,5.38
2022-09-14T23:51:58.180Z,4.35
2022-09-14T23:54:22.090Z,4.53
2022-09-14T23:56:45.798Z,4.82
2022-09-14T23:59:13.056Z,4.68
